Time;durP1;ratioP1;P1;durP2;ratioP2;P2;SDS_P1;SDS_P2;PMS_P1;PMS_P2;Temp;Humidity;BMP_temperature;BMP_pressure;BME280_temperature;BME280_humidity;BME280_pressure;Samples;Min_cycle;Max_cycle;Signal;HPM_P1;HPM_P2
2022/04/09 00:04:13;;;;;;;1.63;1.00;;;;;;;19.98;41.49;94481.78;10291615;28;20461;-58
2022/04/09 00:09:32;;;;;;;1.45;0.85;;;;;;;19.97;41.61;94474.03;10290750;28;20058;-58
2022/04/09 00:14:51;;;;;;;1.83;1.05;;;;;;;19.97;41.45;94498.38;10303998;28;20093;-57
2022/04/09 00:20:12;;;;;;;1.65;0.90;;;;;;;19.95;41.44;94506.84;10303872;28;20047;-56
2022/04/09 00:25:39;;;;;;;1.00;0.90;;;;;;;19.93;41.48;94517.28;10290664;28;20062;-57
2022/04/09 00:30:59;;;;;;;1.45;1.08;;;;;;;19.92;41.32;94530.00;10289940;28;20043;-58
2022/04/09 00:36:18;;;;;;;1.35;1.00;;;;;;;19.90;41.33;94526.16;10290652;28;20438;-57
2022/04/09 00:41:47;;;;;;;1.58;0.95;;;;;;;19.90;41.57;94529.63;10289842;28;20079;-56
2022/04/09 00:47:07;;;;;;;2.17;0.87;;;;;;;19.88;41.41;94526.53;10303066;28;20043;-58
2022/04/09 00:52:26;;;;;;;0.77;0.70;;;;;;;19.87;41.48;94527.66;10289652;28;20054;-57
2022/04/09 00:57:47;;;;;;;1.13;0.80;;;;;;;19.87;41.46;94541.19;10288459;28;20054;-57
2022/04/09 01:03:08;;;;;;;1.08;0.75;;;;;;;19.85;41.53;94551.59;10289739;28;20054;-57
2022/04/09 01:08:28;;;;;;;1.42;0.77;;;;;;;19.83;41.45;94580.91;10288191;28;20094;-58
2022/04/09 01:13:47;;;;;;;1.25;0.70;;;;;;;19.83;41.46;94580.91;10290059;28;20106;-58
2022/04/09 01:19:08;;;;;;;1.75;1.10;;;;;;;19.81;41.45;94593.28;10274762;28;20058;-58
2022/04/09 01:24:31;;;;;;;0.90;0.68;;;;;;;19.81;41.31;94615.66;10274822;28;20121;-58
2022/04/09 01:29:51;;;;;;;2.00;0.80;;;;;;;19.79;41.53;94623.38;10279884;28;20045;-57
2022/04/09 01:35:12;;;;;;;1.00;0.70;;;;;;;19.77;41.41;94614.88;10274345;28;20050;-58
2022/04/09 01:40:31;;;;;;;0.88;0.70;;;;;;;19.77;41.42;94636.47;10302382;28;20050;-57
2022/04/09 01:45:51;;;;;;;0.60;0.60;;;;;;;19.75;41.46;94642.25;10273603;28;20054;-58
2022/04/09 01:51:13;;;;;;;1.15;0.70;;;;;;;19.74;41.48;94642.66;10287224;28;20114;-58
2022/04/09 01:56:33;;;;;;;0.70;0.70;;;;;;;19.74;41.51;94653.44;10279529;28;20554;-57
2022/04/09 02:01:55;;;;;;;0.85;0.70;;;;;;;19.72;41.45;94669.25;10308156;28;20101;-58
2022/04/09 02:07:17;;;;;;;0.70;0.70;;;;;;;19.71;41.45;94708.19;10294063;28;20117;-58
2022/04/09 02:12:37;;;;;;;1.60;0.73;;;;;;;19.69;41.34;94738.28;10281422;28;20055;-58
2022/04/09 02:17:57;;;;;;;0.93;0.73;;;;;;;19.69;41.39;94761.81;10295683;28;20055;-58
2022/04/09 02:23:19;;;;;;;0.68;0.68;;;;;;;19.67;41.40;94761.41;10280027;28;20059;-57
2022/04/09 02:28:38;;;;;;;0.68;0.60;;;;;;;19.66;41.57;94770.66;10294678;28;20528;-55
2022/04/09 02:33:58;;;;;;;0.85;0.70;;;;;;;19.65;41.52;94790.72;10307806;28;20549;-57
2022/04/09 02:39:21;;;;;;;1.20;0.70;;;;;;;19.63;41.40;94798.44;10279763;28;20054;-58
2022/04/09 02:44:43;;;;;;;0.85;0.60;;;;;;;19.63;41.31;94814.63;10278676;28;20055;-58
2022/04/09 02:50:04;;;;;;;0.80;0.80;;;;;;;19.62;41.42;94831.97;10294278;28;20426;-55
2022/04/09 02:55:24;;;;;;;1.00;0.70;;;;;;;19.60;41.37;94864.00;10292379;28;20046;-58
2022/04/09 03:00:44;;;;;;;0.82;0.50;;;;;;;19.60;41.38;94880.19;10292187;28;20047;-57
2022/04/09 03:06:04;;;;;;;1.10;0.70;;;;;;;19.58;41.42;94898.69;10279045;28;20066;-57
2022/04/09 03:11:24;;;;;;;1.35;0.75;;;;;;;19.55;41.20;94911.78;10293567;28;20061;-58
2022/04/09 03:16:43;;;;;;;0.50;0.50;;;;;;;19.55;41.40;94914.50;10292841;28;20062;-57
2022/04/09 03:22:03;;;;;;;0.73;0.60;;;;;;;19.54;41.30;94922.97;10278711;28;20074;-57
2022/04/09 03:27:24;;;;;;;0.52;0.50;;;;;;;19.52;41.28;94944.97;10240982;28;20062;-57
2022/04/09 03:32:44;;;;;;;0.68;0.50;;;;;;;19.52;41.41;94973.88;10278250;28;20113;-58
2022/04/09 03:38:11;;;;;;;0.88;0.60;;;;;;;19.49;41.24;94988.91;10278131;28;20567;-58
2022/04/09 03:43:44;;;;;;;0.65;0.50;;;;;;;19.49;41.35;95034.03;10259334;28;20105;-58
2022/04/09 03:49:04;;;;;;;0.65;0.60;;;;;;;19.47;41.18;95055.22;10291538;28;20051;-58
2022/04/09 03:54:26;;;;;;;0.68;0.60;;;;;;;19.47;41.37;95058.69;10250000;28;20054;-57
2022/04/09 03:59:48;;;;;;;0.47;0.45;;;;;;;19.46;41.37;95059.06;10277277;28;20065;-56
2022/04/09 04:05:09;;;;;;;0.60;0.60;;;;;;;19.44;41.20;95059.41;10277026;28;20498;-58
2022/04/09 04:10:29;;;;;;;0.55;0.50;;;;;;;19.43;41.21;95090.28;10276748;28;20055;-57
2022/04/09 04:16:03;;;;;;;0.50;0.50;;;;;;;19.41;41.25;95106.06;10286245;28;20039;-58
2022/04/09 04:21:24;;;;;;;0.50;0.50;;;;;;;19.40;41.17;95136.13;10288672;28;20077;-58
2022/04/09 04:26:52;;;;;;;0.50;0.50;;;;;;;19.39;41.25;95146.16;10286736;28;20274;-58
2022/04/09 04:32:15;;;;;;;0.65;0.50;;;;;;;19.38;41.29;95171.59;10278617;28;20039;-58
2022/04/09 04:37:39;;;;;;;0.60;0.40;;;;;;;19.36;41.18;95201.66;10288828;28;20454;-58
2022/04/09 04:42:59;;;;;;;0.50;0.50;;;;;;;19.35;41.35;95224.41;10279248;28;20055;-57
2022/04/09 04:48:20;;;;;;;0.50;0.50;;;;;;;19.34;41.20;95246.38;10279857;28;20050;-58
2022/04/09 04:53:41;;;;;;;0.75;0.60;;;;;;;19.34;41.19;95259.88;10282045;28;20106;-56
2022/04/09 04:59:00;;;;;;;0.40;0.40;;;;;;;19.34;41.29;95268.75;10285371;28;20062;-58
2022/04/09 05:04:20;;;;;;;0.82;0.80;;;;;;;19.35;41.42;95269.53;10274765;28;20050;-58
2022/04/09 05:09:48;;;;;;;0.60;0.50;;;;;;;19.36;41.46;95292.69;10274722;28;20063;-58
2022/04/09 05:15:12;;;;;;;0.50;0.50;;;;;;;19.37;41.35;95302.38;10293145;28;20298;-58
2022/04/09 05:20:33;;;;;;;0.60;0.60;;;;;;;19.39;41.30;95323.63;10274745;28;20054;-58
2022/04/09 05:25:57;;;;;;;0.80;0.40;;;;;;;19.40;41.29;95341.38;10273458;28;20063;-58
2022/04/09 05:31:16;;;;;;;0.95;0.50;;;;;;;19.41;41.38;95370.72;10306487;28;20046;-59
2022/04/09 05:36:36;;;;;;;0.45;0.45;;;;;;;19.41;41.63;95391.56;10281957;28;20117;-58
2022/04/09 05:41:56;;;;;;;0.50;0.50;;;;;;;19.43;41.43;95408.94;10280832;28;20054;-58
2022/04/09 05:47:17;;;;;;;0.70;0.60;;;;;;;19.43;41.71;95427.84;10279808;28;20051;-57
2022/04/09 05:52:37;;;;;;;0.40;0.40;;;;;;;19.44;41.66;95424.00;10282316;28;20054;-60
2022/04/09 05:57:57;;;;;;;0.93;0.55;;;;;;;19.46;41.74;95447.97;10281830;28;20428;-58
2022/04/09 06:03:22;;;;;;;0.82;0.50;;;;;;;19.48;41.60;95473.50;10289899;28;20066;-58
2022/04/09 06:08:43;;;;;;;0.50;0.50;;;;;;;19.53;41.71;95500.22;10280711;28;20058;-59
2022/04/09 06:14:10;;;;;;;0.60;0.50;;;;;;;19.54;41.74;95504.50;10280218;28;20050;-58
2022/04/09 06:19:31;;;;;;;0.40;0.40;;;;;;;19.59;41.62;95519.63;10295125;28;20494;-56
2022/04/09 06:24:51;;;;;;;1.45;0.50;;;;;;;19.61;41.62;95532.78;10296934;28;20109;-55
2022/04/09 06:30:12;;;;;;;1.20;0.50;;;;;;;19.63;41.59;95552.88;10317706;28;20050;-57
2022/04/09 06:35:35;;;;;;;0.57;0.45;;;;;;;19.67;41.60;95559.16;10288735;28;20055;-56
2022/04/09 06:40:58;;;;;;;0.80;0.50;;;;;;;19.70;41.55;95571.19;10271970;28;20482;-58
2022/04/09 06:46:25;;;;;;;0.50;0.50;;;;;;;19.74;41.62;95566.66;10275267;28;20050;-58
2022/04/09 06:51:44;;;;;;;0.43;0.40;;;;;;;19.79;41.47;95582.56;10290146;28;20078;-58
2022/04/09 06:57:11;;;;;;;0.40;0.40;;;;;;;19.84;41.50;95582.31;10275881;28;20059;-57
2022/04/09 07:02:36;;;;;;;0.40;0.40;;;;;;;19.88;41.31;95585.88;10288339;28;20487;-58
2022/04/09 07:07:56;;;;;;;0.50;0.50;;;;;;;19.93;41.45;95571.28;10293327;28;20049;-58
2022/04/09 07:13:16;;;;;;;0.32;0.32;;;;;;;19.99;41.39;95569.06;10287699;28;20057;-58
2022/04/09 07:18:36;;;;;;;2.03;0.47;;;;;;;20.03;41.35;95605.06;10305071;28;20050;-57
2022/04/09 07:23:56;;;;;;;0.50;0.40;;;;;;;20.08;41.42;95626.41;10294562;28;20101;-58
2022/04/09 07:29:16;;;;;;;0.90;0.50;;;;;;;20.13;41.35;95639.63;10289834;28;20082;-58
2022/04/09 07:34:36;;;;;;;1.23;0.50;;;;;;;20.18;41.45;95655.59;10299728;28;20102;-59
2022/04/09 07:39:56;;;;;;;0.80;0.60;;;;;;;20.23;41.26;95665.31;10302299;28;20042;-58
2022/04/09 07:45:16;;;;;;;0.40;0.40;;;;;;;20.28;41.28;95665.06;10285639;28;20770;-59
2022/04/09 07:50:35;;;;;;;2.83;0.57;;;;;;;20.32;41.25;95661.28;10287145;28;20046;-58
2022/04/09 07:55:55;;;;;;;0.70;0.60;;;;;;;20.39;41.13;95676.09;10287485;28;20047;-58
2022/04/09 08:01:15;;;;;;;0.60;0.60;;;;;;;20.43;41.06;95672.31;10286603;28;20057;-60
2022/04/09 08:06:35;;;;;;;1.05;0.50;;;;;;;20.46;40.95;95687.03;10287680;28;20059;-59
2022/04/09 08:11:55;;;;;;;0.75;0.75;;;;;;;20.48;40.92;95688.25;10290600;28;20391;-58
2022/04/09 08:17:18;;;;;;;1.00;0.80;;;;;;;20.51;40.89;95701.06;10291532;28;20417;-59
2022/04/09 08:22:37;;;;;;;0.52;0.52;;;;;;;20.53;40.81;95698.78;10290714;28;20125;-59
2022/04/09 08:27:57;;;;;;;1.05;0.65;;;;;;;20.55;40.64;95703.84;10319512;28;20054;-59
2022/04/09 08:33:17;;;;;;;2.90;0.60;;;;;;;20.57;40.52;95698.84;10319711;28;20070;-58
2022/04/09 08:38:37;;;;;;;1.98;0.70;;;;;;;20.61;40.40;95704.38;10290265;28;20105;-58
2022/04/09 08:43:57;;;;;;;1.20;0.60;;;;;;;20.60;40.17;95695.47;10295330;28;20105;-58
2022/04/09 08:49:17;;;;;;;1.48;0.77;;;;;;;20.63;39.85;95702.88;10253641;28;20098;-56
2022/04/09 08:54:37;;;;;;;1.40;0.73;;;;;;;20.59;37.44;95718.25;10248588;28;20071;-57
2022/04/09 08:59:56;;;;;;;1.58;0.90;;;;;;;20.60;38.75;95736.06;10285338;28;20058;-57
2022/04/09 09:05:32;;;;;;;0.73;0.70;;;;;;;20.60;38.47;95752.31;10292628;28;20054;-57
2022/04/09 09:10:58;;;;;;;3.05;0.80;;;;;;;20.61;38.63;95764.69;10280577;28;20050;-57
2022/04/09 09:16:35;;;;;;;3.00;0.80;;;;;;;20.63;38.31;95780.56;10323469;28;20046;-57
2022/04/09 09:21:55;;;;;;;2.55;0.77;;;;;;;20.65;38.60;95773.66;10290066;28;20126;-54
2022/04/09 09:27:14;;;;;;;2.45;1.02;;;;;;;20.59;34.52;95785.09;10290324;28;20074;-56
2022/04/09 09:32:35;;;;;;;1.60;0.90;;;;;;;20.36;34.02;95802.00;10257990;28;20526;-57
2022/04/09 09:38:17;;;;;;;10.90;2.20;;;;;;;20.39;37.16;95806.72;10298089;28;20455;-56
2022/04/09 09:43:37;;;;;;;1.90;1.10;;;;;;;20.45;37.68;95818.81;10295870;28;20043;-53
2022/04/09 09:48:57;;;;;;;6.65;1.00;;;;;;;20.51;37.95;95832.84;10294305;28;20051;-54
2022/04/09 09:54:16;;;;;;;2.90;0.77;;;;;;;20.54;38.41;95829.44;10295444;28;20061;-54
2022/04/09 09:59:36;;;;;;;1.88;0.95;;;;;;;20.55;38.61;95837.19;10292551;28;20050;-56
2022/04/09 10:04:55;;;;;;;4.78;1.42;;;;;;;20.55;35.75;95831.78;10281049;28;20071;-57
2022/04/09 10:10:15;;;;;;;5.80;1.27;;;;;;;20.55;39.89;95839.91;10308100;28;20043;-57
2022/04/09 10:15:34;;;;;;;3.53;1.10;;;;;;;20.57;39.24;95849.59;10293481;28;20059;-57
2022/04/09 10:20:59;;;;;;;4.95;1.00;;;;;;;20.57;39.28;95866.63;10293003;28;20058;-57
2022/04/09 10:26:19;;;;;;;2.85;0.95;;;;;;;20.57;39.28;95855.78;10294092;28;20068;-58
2022/04/09 10:31:40;;;;;;;2.50;0.93;;;;;;;20.58;39.55;95849.25;10294985;28;20050;-54
2022/04/09 10:37:02;;;;;;;3.20;0.90;;;;;;;20.59;39.36;95864.38;10275744;28;20047;-56
2022/04/09 10:42:48;;;;;;;1.77;1.00;;;;;;;20.58;39.52;95870.91;10292285;28;20039;-57
2022/04/09 10:48:11;;;;;;;1.95;1.10;;;;;;;20.41;35.09;95857.75;10290385;28;20059;-57
2022/04/09 10:53:35;;;;;;;1.55;0.80;;;;;;;20.01;33.96;95856.81;10290964;28;20055;-58
2022/04/09 10:59:11;;;;;;;1.60;1.00;;;;;;;20.03;33.37;95859.19;10292542;28;20417;-57
2022/04/09 11:04:32;;;;;;;2.35;0.85;;;;;;;20.03;32.34;95878.09;10294749;28;20128;-57
2022/04/09 11:10:03;;;;;;;1.70;0.77;;;;;;;20.06;34.38;95864.69;10293272;28;20055;-58
2022/04/09 11:15:24;;;;;;;2.17;0.82;;;;;;;19.36;28.97;95865.97;10293127;28;20110;-57
2022/04/09 11:20:45;;;;;;;4.22;0.90;;;;;;;19.34;32.72;95857.44;10273630;28;20063;-54
2022/04/09 11:26:05;;;;;;;2.90;0.77;;;;;;;19.65;35.18;95871.34;10309598;28;20070;-55
2022/04/09 11:31:25;;;;;;;1.88;0.70;;;;;;;19.83;35.17;95877.25;10303902;28;20055;-56
2022/04/09 11:36:44;;;;;;;3.25;0.77;;;;;;;19.94;35.50;95870.19;10285358;28;20422;-57
2022/04/09 11:42:05;;;;;;;2.67;0.80;;;;;;;20.02;35.89;95884.66;10293033;28;20526;-58
2022/04/09 11:47:25;;;;;;;4.35;0.85;;;;;;;20.06;36.07;95877.41;10301025;28;20094;-57
2022/04/09 11:52:45;;;;;;;2.97;0.88;;;;;;;20.09;36.53;95891.03;10286217;28;20093;-58
2022/04/09 11:58:05;;;;;;;2.58;0.70;;;;;;;20.14;36.85;95892.69;10303724;28;20195;-57
2022/04/09 12:03:25;;;;;;;1.02;0.77;;;;;;;20.18;37.32;95895.47;10287988;28;20734;-57
2022/04/09 12:08:44;;;;;;;1.02;0.70;;;;;;;20.20;37.67;95915.63;10290722;28;20061;-55
2022/04/09 12:14:13;;;;;;;1.63;0.70;;;;;;;20.22;37.94;95920.69;10304251;28;20043;-57
2022/04/09 12:19:33;;;;;;;3.00;0.77;;;;;;;20.25;38.20;95933.50;10288293;28;20061;-57
2022/04/09 12:24:57;;;;;;;2.00;0.82;;;;;;;20.26;38.41;95933.16;10300826;28;20461;-56
2022/04/09 12:30:41;;;;;;;1.42;0.93;;;;;;;20.28;37.94;95944.41;10289857;28;20050;-58
2022/04/09 12:36:08;;;;;;;2.22;1.42;;;;;;;20.21;34.25;95928.00;10261293;28;20053;-57
2022/04/09 12:41:44;;;;;;;5.47;2.75;;;;;;;20.19;37.92;95924.88;10296461;28;20050;-57
2022/04/09 12:47:04;;;;;;;5.75;1.95;;;;;;;20.21;37.44;95925.31;10267228;28;20406;-58
2022/04/09 12:52:24;;;;;;;8.15;2.75;;;;;;;20.26;37.62;95916.13;10303072;28;20478;-57
2022/04/09 12:57:44;;;;;;;7.68;2.95;;;;;;;20.27;37.92;95913.09;10246796;28;20051;-57
2022/04/09 13:03:03;;;;;;;8.18;3.08;;;;;;;20.29;38.23;95916.22;10259569;28;20499;-57
2022/04/09 13:08:23;;;;;;;9.32;2.83;;;;;;;20.31;38.32;95916.66;10259285;28;20046;-58
2022/04/09 13:13:43;;;;;;;7.53;2.50;;;;;;;20.33;38.64;95911.69;10250276;28;20055;-57
2022/04/09 13:19:04;;;;;;;6.97;3.08;;;;;;;20.35;38.85;95901.31;10248675;28;20057;-57
2022/04/09 13:24:24;;;;;;;8.23;3.22;;;;;;;20.35;39.04;95914.03;10249902;28;20058;-58
2022/04/09 13:29:43;;;;;;;8.02;3.00;;;;;;;20.34;39.23;95915.16;10223759;29;20458;-57
2022/04/09 13:35:04;;;;;;;7.85;3.10;;;;;;;20.35;40.08;95908.63;10246500;28;20051;-58
2022/04/09 13:40:23;;;;;;;6.30;2.65;;;;;;;20.34;40.21;95928.69;10251444;28;20042;-56
2022/04/09 13:45:43;;;;;;;6.72;2.63;;;;;;;20.34;40.24;95945.69;10246239;28;20060;-57
2022/04/09 13:51:02;;;;;;;7.13;2.60;;;;;;;20.33;40.20;95965.00;10232673;29;20487;-57
2022/04/09 13:56:22;;;;;;;4.15;2.50;;;;;;;20.33;40.36;95970.41;10269192;28;20506;-57
2022/04/09 14:01:42;;;;;;;4.80;1.92;;;;;;;20.33;40.42;95982.00;10256369;29;20055;-57
2022/04/09 14:07:02;;;;;;;8.00;2.50;;;;;;;20.33;40.65;96000.94;10256025;29;20059;-57
2022/04/09 14:12:22;;;;;;;6.10;2.30;;;;;;;20.32;40.62;95996.66;10255133;29;20075;-57
2022/04/09 14:17:42;;;;;;;4.55;1.88;;;;;;;20.31;40.78;95983.50;10252715;28;20113;-57
2022/04/09 14:23:03;;;;;;;3.92;1.60;;;;;;;20.32;40.91;95991.25;10249926;28;20051;-56
2022/04/09 14:28:26;;;;;;;2.58;1.20;;;;;;;20.32;41.05;95988.53;10281705;28;20421;-53
2022/04/09 14:33:46;;;;;;;2.72;1.55;;;;;;;20.32;40.53;95991.25;10286922;28;20085;-52
2022/04/09 14:39:06;;;;;;;3.15;1.30;;;;;;;20.34;40.19;95999.03;10293490;28;20081;-50
2022/04/09 14:44:25;;;;;;;2.75;1.30;;;;;;;20.31;39.77;95987.00;10292300;28;20060;-60
2022/04/09 14:49:47;;;;;;;3.00;1.25;;;;;;;20.31;39.46;95984.28;10288693;28;20634;-52
2022/04/09 14:55:08;;;;;;;2.10;1.20;;;;;;;20.31;39.19;95989.69;10291935;28;20078;-51
2022/04/09 15:00:28;;;;;;;1.30;0.85;;;;;;;20.29;39.18;96002.00;10286929;28;20387;-50
2022/04/09 15:05:47;;;;;;;2.22;1.00;;;;;;;20.28;38.99;96022.84;10286037;28;20498;-53
2022/04/09 15:11:07;;;;;;;3.20;1.10;;;;;;;20.29;38.60;96034.47;10286026;28;20105;-51
2022/04/09 15:16:27;;;;;;;2.42;1.00;;;;;;;20.28;38.71;96027.47;10300002;28;20047;-51
2022/04/09 15:21:47;;;;;;;2.17;1.02;;;;;;;20.28;38.78;96030.94;10285293;28;20129;-51
2022/04/09 15:27:06;;;;;;;1.70;0.90;;;;;;;20.28;38.42;96006.59;10286550;28;20062;-52
2022/04/09 15:32:28;;;;;;;1.67;1.00;;;;;;;20.27;38.34;96005.06;10287581;28;20070;-53
2022/04/09 15:37:48;;;;;;;5.43;0.77;;;;;;;20.25;38.04;96015.44;10273182;28;20526;-53
2022/04/09 15:43:08;;;;;;;1.40;0.70;;;;;;;20.25;37.90;96034.38;10280040;28;20453;-53
2022/04/09 15:48:28;;;;;;;1.75;0.95;;;;;;;20.23;38.17;96077.19;10284008;28;20059;-54
2022/04/09 15:53:47;;;;;;;2.03;0.80;;;;;;;20.22;38.66;96067.50;10302368;28;20560;-53
2022/04/09 15:59:07;;;;;;;0.80;0.80;;;;;;;20.22;38.75;96072.13;10286307;28;20071;-55
2022/04/09 16:04:26;;;;;;;1.02;0.80;;;;;;;20.22;38.74;96069.44;10301088;28;20042;-55
2022/04/09 16:09:46;;;;;;;1.05;0.75;;;;;;;20.20;38.80;96066.28;10286469;28;20097;-55
2022/04/09 16:15:07;;;;;;;2.30;0.80;;;;;;;20.21;38.68;96067.84;10286850;28;20126;-51
2022/04/09 16:20:27;;;;;;;1.15;0.70;;;;;;;20.20;38.84;96069.75;10288919;28;20149;-51
2022/04/09 16:25:48;;;;;;;1.98;0.82;;;;;;;20.21;38.75;96073.25;10293417;28;20047;-56
2022/04/09 16:31:07;;;;;;;1.20;0.70;;;;;;;20.20;38.86;96061.66;10283287;28;20051;-50
2022/04/09 16:36:27;;;;;;;3.85;0.70;;;;;;;20.20;38.64;96082.50;10287275;28;20418;-55
2022/04/09 16:41:47;;;;;;;1.25;0.73;;;;;;;20.19;38.71;96075.50;10286975;28;20383;-50
2022/04/09 16:47:07;;;;;;;1.50;0.60;;;;;;;20.18;38.71;96080.13;10286297;28;20047;-50
2022/04/09 16:52:26;;;;;;;1.23;0.88;;;;;;;20.18;38.82;96090.19;10299001;28;20482;-51
2022/04/09 16:57:46;;;;;;;0.80;0.70;;;;;;;20.16;39.01;96095.94;10286632;28;20058;-51
2022/04/09 17:03:06;;;;;;;1.15;0.70;;;;;;;20.14;38.91;96098.19;10284743;28;20055;-52
2022/04/09 17:08:25;;;;;;;3.70;0.90;;;;;;;20.14;39.00;96117.13;10285839;28;20558;-53
2022/04/09 17:13:46;;;;;;;1.20;0.80;;;;;;;20.12;38.95;96124.78;10286576;28;20117;-53
2022/04/09 17:19:06;;;;;;;0.77;0.60;;;;;;;20.11;39.02;96132.13;10288120;28;20047;-57
2022/04/09 17:24:26;;;;;;;2.10;0.80;;;;;;;20.11;39.08;96134.03;10296426;28;20053;-56
2022/04/09 17:29:46;;;;;;;3.33;0.80;;;;;;;20.10;39.34;96146.75;10293305;28;20047;-57
2022/04/09 17:35:06;;;;;;;1.48;1.00;;;;;;;20.09;39.53;96150.59;10300502;28;20538;-56
2022/04/09 17:40:26;;;;;;;3.35;1.13;;;;;;;20.09;39.62;96149.81;10292336;28;20058;-57
2022/04/09 17:45:45;;;;;;;2.13;0.90;;;;;;;20.07;39.63;96158.28;10301550;28;20043;-57
2022/04/09 17:51:05;;;;;;;2.45;1.00;;;;;;;20.06;39.64;96161.31;10293337;28;20473;-57
2022/04/09 17:56:27;;;;;;;2.60;0.88;;;;;;;20.05;39.83;96173.25;10296437;28;20223;-57
2022/04/09 18:01:46;;;;;;;2.60;1.20;;;;;;;20.05;39.82;96178.66;10280934;28;20047;-51
2022/04/09 18:07:07;;;;;;;2.60;1.00;;;;;;;20.03;39.78;96200.66;10308825;28;20050;-52
2022/04/09 18:12:27;;;;;;;4.18;1.00;;;;;;;20.01;39.74;96224.50;10308221;28;20126;-55
2022/04/09 18:17:47;;;;;;;2.92;1.15;;;;;;;20.02;39.84;96233.44;10294044;28;20548;-57
2022/04/09 18:23:07;;;;;;;4.00;1.10;;;;;;;20.01;40.04;96243.44;10286220;28;20053;-56
2022/04/09 18:28:27;;;;;;;2.63;1.13;;;;;;;20.00;39.99;96251.91;10293318;28;20571;-54
2022/04/09 18:33:46;;;;;;;3.20;1.10;;;;;;;19.98;39.98;96263.06;10294267;28;20058;-55
2022/04/09 18:39:05;;;;;;;2.90;1.08;;;;;;;19.98;39.91;96278.50;10292455;28;20162;-53
2022/04/09 18:44:25;;;;;;;1.42;1.00;;;;;;;19.95;40.00;96280.75;10289923;28;20061;-58
2022/04/09 18:49:45;;;;;;;3.45;1.17;;;;;;;19.95;39.86;96296.97;10255658;28;20082;-58
2022/04/09 18:55:05;;;;;;;1.92;1.00;;;;;;;19.94;39.99;96305.41;10282071;28;20057;-58
2022/04/09 19:00:25;;;;;;;2.13;1.10;;;;;;;19.93;39.95;96312.75;10301442;28;20100;-56
2022/04/09 19:05:45;;;;;;;1.27;0.85;;;;;;;19.92;39.99;96321.19;10303895;28;20113;-57
2022/04/09 19:11:04;;;;;;;3.33;0.95;;;;;;;19.91;39.84;96336.59;10302064;28;20038;-56
2022/04/09 19:16:23;;;;;;;1.63;1.10;;;;;;;19.90;39.77;96335.03;10288611;28;20046;-58
2022/04/09 19:21:43;;;;;;;2.25;0.90;;;;;;;19.89;39.74;96349.66;10291517;28;20105;-58
2022/04/09 19:27:03;;;;;;;2.40;1.00;;;;;;;19.88;39.54;96350.03;10285463;28;20426;-53
2022/04/09 19:32:23;;;;;;;3.40;1.00;;;;;;;19.87;39.71;96359.25;10288663;28;20046;-56
2022/04/09 19:37:43;;;;;;;4.00;1.08;;;;;;;19.85;39.63;96359.56;10287597;28;20054;-53
2022/04/09 19:43:03;;;;;;;2.53;1.20;;;;;;;19.85;39.68;96364.97;10283569;28;20053;-55
2022/04/09 19:48:23;;;;;;;1.52;1.08;;;;;;;19.84;39.69;96363.41;10285479;28;20074;-53
2022/04/09 19:53:42;;;;;;;1.23;0.88;;;;;;;19.82;39.60;96367.59;10271966;28;20065;-52
2022/04/09 19:59:01;;;;;;;1.20;1.10;;;;;;;19.81;39.48;96366.78;10280573;28;20047;-58
2022/04/09 20:04:24;;;;;;;0.98;0.73;;;;;;;19.80;39.57;96376.03;10287957;28;20046;-60
2022/04/09 20:09:44;;;;;;;0.95;0.90;;;;;;;19.78;39.53;96370.19;10287944;28;20051;-57
2022/04/09 20:15:04;;;;;;;1.50;0.80;;;;;;;19.77;39.35;96376.69;10270398;28;20050;-60
2022/04/09 20:20:24;;;;;;;2.15;0.95;;;;;;;19.77;39.25;96373.22;10262739;28;20462;-53
2022/04/09 20:25:44;;;;;;;2.17;0.70;;;;;;;19.74;39.08;96382.78;10280778;28;20063;-54
2022/04/09 20:31:04;;;;;;;2.17;0.90;;;;;;;19.74;39.24;96391.69;10301604;28;20035;-53
2022/04/09 20:36:24;;;;;;;1.52;0.82;;;;;;;19.73;39.36;96400.88;10301398;28;20031;-53
2022/04/09 20:41:44;;;;;;;1.20;0.80;;;;;;;19.72;39.42;96390.44;10300177;28;20482;-52
2022/04/09 20:47:04;;;;;;;2.63;1.00;;;;;;;19.71;39.62;96394.22;10276661;28;20075;-59
2022/04/09 20:52:25;;;;;;;1.20;0.70;;;;;;;19.71;39.50;96388.81;10290143;28;20054;-59
2022/04/09 20:57:45;;;;;;;1.20;0.82;;;;;;;19.70;39.53;96395.34;10279672;28;20086;-59
2022/04/09 21:03:06;;;;;;;1.33;0.70;;;;;;;19.69;39.65;96391.06;10308973;28;20039;-58
2022/04/09 21:08:26;;;;;;;1.40;0.90;;;;;;;19.69;39.83;96385.66;10310933;28;20042;-57
2022/04/09 21:13:46;;;;;;;0.68;0.68;;;;;;;19.68;39.78;96400.28;10278169;28;20056;-57
2022/04/09 21:19:07;;;;;;;0.73;0.60;;;;;;;19.67;39.83;96410.31;10296792;28;20063;-56
2022/04/09 21:24:27;;;;;;;1.00;0.90;;;;;;;19.66;39.94;96407.94;10297820;28;20395;-57
2022/04/09 21:29:46;;;;;;;1.00;0.80;;;;;;;19.65;40.11;96407.16;10296165;28;20137;-57
2022/04/09 21:35:09;;;;;;;1.08;0.73;;;;;;;19.65;40.24;96412.56;10294771;28;20133;-57
2022/04/09 21:40:29;;;;;;;1.45;0.70;;;;;;;19.64;40.25;96408.28;10295616;28;20785;-57
2022/04/09 21:45:49;;;;;;;2.05;0.80;;;;;;;19.63;40.33;96416.72;10296674;28;20050;-56
2022/04/09 21:51:08;;;;;;;1.33;0.70;;;;;;;19.63;40.28;96419.44;10296939;28;20181;-56
2022/04/09 21:56:28;;;;;;;7.43;0.75;;;;;;;19.62;40.53;96415.13;10296485;28;20058;-56
2022/04/09 22:01:48;;;;;;;0.75;0.70;;;;;;;19.61;40.62;96416.28;10294921;28;20401;-54
2022/04/09 22:07:08;;;;;;;1.40;0.73;;;;;;;19.60;40.39;96420.91;10287103;28;20050;-54
2022/04/09 22:12:27;;;;;;;0.80;0.77;;;;;;;19.59;40.42;96424.72;10291161;28;20054;-56
2022/04/09 22:17:47;;;;;;;1.13;0.57;;;;;;;19.58;40.45;96428.50;10290597;28;20086;-56
2022/04/09 22:23:07;;;;;;;0.88;0.70;;;;;;;19.58;40.35;96435.84;10303361;28;20047;-55
2022/04/09 22:28:27;;;;;;;1.17;0.70;;;;;;;19.56;40.46;96434.28;10284304;28;20135;-57
2022/04/09 22:33:46;;;;;;;0.93;0.65;;;;;;;19.54;40.40;96444.63;10273161;28;20124;-57
2022/04/09 22:39:06;;;;;;;1.15;0.75;;;;;;;19.53;40.39;96440.34;10266650;28;20051;-54
2022/04/09 22:44:26;;;;;;;1.55;0.68;;;;;;;19.53;40.43;96434.16;10280632;28;20114;-56
2022/04/09 22:49:46;;;;;;;1.50;0.90;;;;;;;19.52;40.48;96432.56;10254808;28;20062;-55
2022/04/09 22:55:07;;;;;;;1.58;0.82;;;;;;;19.50;40.46;96449.13;10267546;28;20051;-54
2022/04/09 23:00:26;;;;;;;1.10;0.80;;;;;;;19.49;40.34;96441.34;10267135;28;20051;-55
2022/04/09 23:05:47;;;;;;;2.53;0.70;;;;;;;19.48;40.45;96451.38;10277985;28;20097;-56
2022/04/09 23:11:08;;;;;;;2.05;0.80;;;;;;;19.47;40.33;96449.78;10293735;28;20054;-54
2022/04/09 23:16:28;;;;;;;0.85;0.60;;;;;;;19.45;40.28;96452.00;10293505;28;20461;-54
2022/04/09 23:21:47;;;;;;;1.23;0.70;;;;;;;19.43;40.29;96456.97;10306158;28;20054;-54
2022/04/09 23:27:07;;;;;;;1.08;0.70;;;;;;;19.43;40.43;96453.47;10292599;28;20617;-57
2022/04/09 23:32:26;;;;;;;1.30;0.60;;;;;;;19.42;40.28;96468.09;10293044;28;20047;-57
2022/04/09 23:37:46;;;;;;;0.90;0.60;;;;;;;19.40;40.41;96463.00;10292287;28;20129;-54
2022/04/09 23:43:05;;;;;;;0.73;0.60;;;;;;;19.40;40.39;96471.13;10292242;28;20059;-55
2022/04/09 23:48:26;;;;;;;2.08;0.70;;;;;;;19.38;40.34;96465.25;10305071;28;20137;-56
2022/04/09 23:53:45;;;;;;;0.80;0.63;;;;;;;19.37;40.45;96466.38;10305196;28;20039;-56
2022/04/09 23:59:05;;;;;;;0.75;0.60;;;;;;;19.37;40.28;96469.09;10305056;28;20050;-56
